Overview Statistics Trail Chart Weather Telemetry Raw packets
 

This is the latest recevied weather packets stored in our database for station/object SQ9RHX-11. If no packets are shown the sender has not sent any weather packets the latest 10 day(s).

<< 6 7 8 9 10 11 12 >>
Time Temp. Humidity Pressure Rain* Wind** Luminosity Snow
1788131309 15° C 82% 1015.9 hPa - - - -
1788129509 15° C 81% 1016 hPa - - - -
1788127709 15° C 80% 1015.9 hPa - - - -
1788125909 15° C 79% 1015.8 hPa - - - -
1788124110 15.56° C 76% 1015.7 hPa - - - -
1788122311 16.11° C 74% 1015.5 hPa - - - -
1788120511 16.67° C 72% 1015.4 hPa - - - -
1788118711 17.78° C 71% 1015.5 hPa - - - -
1788116912 18.89° C 68% 1015.4 hPa - - - -
1788115112 20° C 64% 1015.4 hPa - - - -
1788113313 21.11° C 60% 1014.9 hPa - - - -
1788111514 22.78° C 56% 1014.7 hPa - - - -
1788109714 24.44° C 49% 1014.4 hPa - - - -
1788107914 25° C 49% 1014.5 hPa - - - -
1788106115 26.11° C 45% 1014.4 hPa - - - -
1788104315 27.22° C 43% 1014.6 hPa - - - -
1788102515 27.22° C 42% 1014.7 hPa - - - -
1788100715 27.78° C 41% 1014.8 hPa - - - -
1788098915 26.67° C 41% 1014.8 hPa - - - -
1788097115 27.78° C 39% 1014.8 hPa - - - -
1788095316 30.56° C 36% 1014.9 hPa - - - -
1788093516 29.44° C 38% 1014.9 hPa - - - -
1788091716 28.33° C 40% 1014.9 hPa - - - -
1788089917 27.78° C 40% 1014.9 hPa - - - -
1788088117 27.78° C 43% 1015.4 hPa - - - -

* Rain since midnight (hover to see other rain measurements)
** Current wind speed in m/s (hover to see current wind gust speed)